Latest Weather Observations for Gudgenby

IDN60801

Issued at 10:52 am EST Wednesday 22 May 2019 (issued every 10 minutes, with the page automatically refreshed every 10 minutes)

About weather observations | Map of weather stations | Latest weather observations for NSW | Other Formats
Station Details ID: 250072 Name: PORTABLE RFSACT04 Lat: -35.73 Lon: 148.98 Height: 1035.0 m
Data from the previous 72 hours. | See also: Recent months for locations in New South Wales
Date/Time
EST
Temp
°C
App
Temp
°C
Dew
Point
°C
Rel
Hum
%
Delta-T
°C
Wind Press
QNH
hPa
Press
MSL
hPa
Rain since
9am
mm
Dir  Spd
km/h
Gust
km/h
Spd
kts
Gust
kts
22/10:30am 14.5 12.5 4.2 50 5.0 E 4 6 2 3 - - 0.0
22/10:00am 12.6 10.9 6.0 64 3.3 N 4 6 2 3 - - 0.0
22/09:30am 11.1 9.4 6.0 71 2.5 N 4 6 2 3 - - 0.0
22/09:00am 8.9 7.1 5.3 78 1.7 NNW 4 6 2 3 - - 0.0
22/08:30am 7.2 5.5 3.8 79 1.6 N 2 4 1 2 - - 0.0
22/08:00am 5.6 3.8 3.4 86 1.0 SW 2 4 1 2 - - 0.0
22/07:30am 4.3 2.0 3.0 91 0.6 WSW 4 6 2 3 - - 0.0
22/07:00am 3.8 1.0 2.2 89 0.7 SW 6 9 3 5 - - 0.0
22/06:30am 3.9 1.5 2.0 87 0.8 NW 4 6 2 3 - - 0.0
22/06:00am 4.1 2.0 2.0 86 0.9 WNW 2 4 1 2 - - 0.0
22/05:30am 4.9 2.1 2.1 82 1.2 SSE 6 9 3 5 - - 0.0
22/05:00am 4.2 1.6 1.2 81 1.3 SSW 4 6 2 3 - - 0.0
22/04:30am 5.0 1.9 1.5 78 1.5 WNW 7 15 4 8 - - 0.0
22/04:00am 6.1 3.1 1.7 73 1.9 SE 7 11 4 6 - - 0.0
22/03:30am 4.2 1.3 1.6 83 1.1 SSW 6 9 3 5 - - 0.0
22/03:00am 5.0 1.9 1.6 79 1.4 W 7 13 4 7 - - 0.0
22/02:30am 5.0 1.8 1.0 75 1.7 SE 7 11 4 6 - - 0.0
22/02:00am 5.0 2.1 1.2 76 1.6 E 6 7 3 4 - - 0.0
22/01:30am 5.7 3.1 1.1 72 1.9 N 4 7 2 4 - - 0.0
22/01:00am 5.3 2.7 0.7 72 1.9 N 4 6 2 3 - - 0.0
22/12:30am 5.9 2.8 0.2 67 2.4 NE 6 7 3 4 - - 0.0
22/12:00am 5.6 2.0 0.9 72 2.0 SSE 9 13 5 7 - - 0.0
 
Date/Time
EST
Temp
°C
App
Temp
°C
Dew
Point
°C
Rel
Hum
%
Delta-T
°C
Wind Press
QNH
hPa
Press
MSL
hPa
Rain since
9am
mm
Dir  Spd
km/h
Gust
km/h
Spd
kts
Gust
kts
21/11:30pm 6.4 3.4 0.6 66 2.4 SE 6 9 3 5 - - 0.0
21/11:00pm 6.8 4.0 -0.5 59 3.0 NE 4 7 2 4 - - 0.0
21/10:30pm 7.4 4.6 2.2 69 2.3 NNE 6 7 3 4 - - 0.0
21/10:00pm 7.4 4.7 2.6 71 2.1 NW 6 9 3 5 - - 0.0
21/09:30pm 8.3 5.4 2.7 68 2.5 SE 7 11 4 6 - - 0.0
21/09:00pm 7.6 5.2 4.5 81 1.4 SSE 6 11 3 6 - - 0.0
21/08:30pm 8.4 6.1 4.9 78 1.7 SSW 6 9 3 5 - - 0.0
21/08:00pm 9.1 7.3 5.2 76 1.9 SSW 4 6 2 3 - - 0.0
21/07:30pm 9.1 7.2 5.0 75 2.0 NNE 4 6 2 3 - - 0.0
21/07:00pm 9.4 8.0 5.6 77 1.8 W 2 4 1 2 - - 0.0
21/06:30pm 10.2 8.0 5.2 71 2.4 NW 6 6 3 3 - - 0.0
21/06:00pm 11.3 8.5 5.2 66 3.0 WNW 9 11 5 6 - - 0.0
21/05:30pm 12.2 9.4 5.1 62 3.5 WNW 9 11 5 6 - - 0.0
21/05:00pm 12.7 9.6 5.7 62 3.5 WNW 11 13 6 7 - - 0.0
21/04:30pm 13.6 10.9 5.6 58 4.0 W 9 11 5 6 - - 0.0
21/04:00pm 14.0 11.4 5.9 58 4.1 W 9 11 5 6 - - 0.0
21/03:30pm 14.1 10.3 5.7 57 4.2 W 15 19 8 10 - - 0.0
21/03:00pm 14.8 9.7 4.2 49 5.2 W 20 24 11 13 - - 0.0
21/02:30pm 16.0 12.5 3.6 43 6.0 WSW 11 15 6 8 - - 0.0
21/02:00pm 16.8 11.5 3.2 40 6.6 WNW 20 28 11 15 - - 0.0
21/01:30pm 16.9 12.1 5.5 47 5.8 WNW 20 26 11 14 - - 0.0
21/01:00pm 17.1 10.1 5.8 47 5.8 W 32 37 17 20 - - 0.0
21/12:30pm 17.8 12.3 5.8 45 6.2 WNW 24 44 13 24 - - 0.0
21/12:00pm 17.4 13.8 6.8 49 5.6 W 15 32 8 17 - - 0.0
21/11:30am 17.6 13.0 6.6 48 5.8 W 20 39 11 21 - - 0.0
21/11:00am 17.4 13.1 7.2 51 5.4 W 19 26 10 14 - - 0.0
21/10:30am 17.0 13.4 6.9 51 5.3 SW 15 22 8 12 - - 0.0
21/10:00am 16.7 14.0 7.3 54 5.0 WSW 11 20 6 11 - - 0.0
21/09:30am 16.1 11.6 6.8 54 4.8 W 20 35 11 19 - - 0.0
21/09:00am 15.5 11.9 6.9 56 4.5 NW 15 26 8 14 - - 0.2
21/08:30am 15.5 11.6 6.9 56 4.5 NNW 17 24 9 13 - - 0.2
21/08:00am 13.9 10.5 5.8 58 4.1 NW 13 24 7 13 - - 0.2
21/07:30am 13.4 8.3 5.8 60 3.8 WNW 22 30 12 16 - - 0.2
21/07:00am 12.7 7.9 5.5 61 3.6 NW 20 28 11 15 - - 0.2
21/06:30am 12.0 7.6 4.9 62 3.5 NW 17 24 9 13 - - 0.2
21/06:00am 12.3 6.6 5.1 61 3.5 WNW 24 28 13 15 - - 0.2
21/05:30am 12.0 5.6 5.3 63 3.3 WNW 28 32 15 17 - - 0.2
21/05:00am 11.4 8.3 5.6 67 2.9 NW 11 11 6 6 - - 0.2
21/04:30am 11.5 8.0 5.6 67 2.9 NW 13 15 7 8 - - 0.2
21/04:00am 12.1 7.3 5.7 65 3.2 WNW 20 22 11 12 - - 0.2
21/03:30am 12.9 6.2 5.8 62 3.5 WNW 30 35 16 19 - - 0.2
21/03:00am 12.5 7.0 5.7 63 3.4 W 24 35 13 19 - - 0.2
21/02:30am 11.9 8.0 5.5 65 3.1 WNW 15 20 8 11 - - 0.2
21/02:00am 11.5 8.7 5.1 65 3.1 W 9 11 5 6 - - 0.2
21/01:30am 12.2 9.9 5.7 64 3.2 NNW 7 11 4 6 - - 0.2
21/01:00am 12.0 8.1 5.5 64 3.2 NNW 15 20 8 11 - - 0.2
21/12:30am 11.5 8.0 5.4 66 3.0 WNW 13 15 7 8 - - 0.2
21/12:00am 10.9 5.7 5.4 69 2.7 NW 22 24 12 13 - - 0.2
 
Date/Time
EST
Temp
°C
App
Temp
°C
Dew
Point
°C
Rel
Hum
%
Delta-T
°C
Wind Press
QNH
hPa
Press
MSL
hPa
Rain since
9am
mm
Dir  Spd
km/h
Gust
km/h
Spd
kts
Gust
kts
20/11:30pm 11.4 7.1 5.3 66 3.0 WNW 17 19 9 10 - - 0.2
20/11:00pm 11.6 7.6 5.1 64 3.2 WNW 15 20 8 11 - - 0.2
20/10:30pm 11.2 8.9 5.8 69 2.7 NW 7 9 4 5 - - 0.2
20/10:00pm 11.2 8.2 5.9 70 2.6 NW 11 15 6 8 - - 0.2
20/09:30pm 10.8 8.2 6.0 72 2.4 NW 9 15 5 8 - - 0.2
20/09:00pm 11.2 8.9 5.9 70 2.6 WNW 7 11 4 6 - - 0.2
20/08:30pm 10.8 8.8 6.2 73 2.3 NW 6 9 3 5 - - 0.2
20/08:00pm 11.0 8.6 6.8 75 2.1 NW 9 9 5 5 - - 0.2
20/07:30pm 11.4 9.2 6.4 71 2.5 NW 7 11 4 6 - - 0.2
20/07:00pm 11.0 9.0 6.3 73 2.3 N 6 7 3 4 - - 0.2
20/06:30pm 11.2 9.0 6.3 72 2.4 N 7 9 4 5 - - 0.2
20/06:00pm 11.8 9.2 6.1 68 2.8 N 9 11 5 6 - - 0.2
20/05:30pm 12.8 10.7 5.8 62 3.5 N 6 7 3 4 - - 0.2
20/05:00pm 13.1 10.4 5.6 60 3.7 NNW 9 11 5 6 - - 0.2
20/04:30pm 14.0 11.2 5.3 55 4.3 NE 9 13 5 7 - - 0.2
20/04:00pm 14.7 11.5 5.2 53 4.7 WNW 11 17 6 9 - - 0.2
20/03:30pm 16.0 11.3 5.2 48 5.4 W 19 24 10 13 - - 0.2
20/03:00pm 15.6 10.7 5.3 50 5.2 NW 20 24 11 13 - - 0.2
20/02:30pm 15.5 11.9 5.0 49 5.2 WNW 13 22 7 12 - - 0.2
20/02:00pm 15.3 10.9 5.0 50 5.1 W 17 22 9 12 - - 0.2
20/01:30pm 15.8 11.0 5.4 50 5.2 NW 20 28 11 15 - - 0.2
20/01:00pm 16.0 11.4 5.4 49 5.4 WNW 19 22 10 12 - - 0.2
20/12:30pm 16.0 10.9 5.8 50 5.2 NW 22 30 12 16 - - 0.2
20/12:00pm 14.9 10.2 6.1 55 4.5 NW 20 26 11 14 - - 0.2
20/11:30am 15.0 10.6 6.4 56 4.4 NNW 19 22 10 12 - - 0.2
20/11:00am 12.5 9.5 7.5 71 2.6 NNW 13 15 7 8 - - 0.2
20/10:30am 8.6 6.9 8.3 98 0.2 WNW 7 13 4 7 - - 0.2
20/10:00am 6.0 4.3 5.8 99 0.1 SSE 4 6 2 3 - - 0.0
20/09:30am 4.7 2.7 4.5 99 0.1 SSW 4 6 2 3 - - 0.0
20/09:00am 4.6 2.6 4.4 99 0.1 SSE 4 7 2 4 - - 0.0
20/08:30am 1.8 -0.3 1.5 98 0.1 SW 2 6 1 3 - - 0.0
20/08:00am 0.5 -2.2 0.2 98 0.1 W 4 6 2 3 - - 0.0
20/07:30am -0.1 -2.5 -0.3 99 0.1 E 2 2 1 1 - - 0.0
20/07:00am -0.7 -3.6 -1.0 98 0.1 SSE 4 6 2 3 - - 0.0
20/06:30am -0.4 -2.9 -0.7 98 0.1 SSE 2 4 1 2 - - 0.0
20/06:00am 0.0 -2.4 -0.3 98 0.1 N 2 4 1 2 - - 0.0
20/05:30am 0.0 -2.4 -0.2 99 0.1 NW 2 2 1 1 - - 0.0
20/05:00am -0.1 -2.9 -0.3 99 0.1 WSW 4 6 2 3 - - 0.0
20/04:30am 0.4 -2.3 0.1 98 0.1 N 4 6 2 3 - - 0.0
20/04:00am 0.4 -1.9 0.2 99 0.1 SSE 2 4 1 2 - - 0.0
20/03:30am 1.9 -0.2 1.6 98 0.1 W 2 6 1 3 - - 0.0
20/03:00am 2.0 -0.5 1.8 99 0.1 S 4 6 2 3 - - 0.0
20/02:30am 1.5 -0.7 1.3 99 0.1 S 2 2 1 1 - - 0.0
20/02:00am 2.4 0.4 2.1 98 0.1 SSW 2 6 1 3 - - 0.0
20/01:30am 2.7 0.7 2.4 98 0.1 ENE 2 2 1 1 - - 0.0
20/01:00am 2.2 0.1 1.9 98 0.1 N 2 2 1 1 - - 0.0
20/12:30am 3.2 1.3 2.9 98 0.1 NW 2 4 1 2 - - 0.0
20/12:00am 3.2 0.9 2.9 98 0.1 W 4 4 2 2 - - 0.0
 
Date/Time
EST
Temp
°C
App
Temp
°C
Dew
Point
°C
Rel
Hum
%
Delta-T
°C
Wind Press
QNH
hPa
Press
MSL
hPa
Rain since
9am
mm
Dir  Spd
km/h
Gust
km/h
Spd
kts
Gust
kts
19/11:30pm 3.5 1.3 3.2 98 0.1 S 4 6 2 3 - - 0.0
19/11:00pm 3.8 1.6 3.4 97 0.2 SSE 4 6 2 3 - - 0.0
19/10:30pm 4.7 2.7 4.3 97 0.2 SE 4 6 2 3 - - 0.0
19/10:00pm 4.6 2.2 4.1 97 0.2 SE 6 7 3 4 - - 0.0
19/09:30pm 5.2 3.2 4.6 96 0.3 SSE 4 6 2 3 - - 0.0
19/09:00pm 5.9 3.7 5.1 95 0.4 S 6 6 3 3 - - 0.0
19/08:30pm 6.7 4.5 5.5 92 0.6 S 6 7 3 4 - - 0.0
19/08:00pm 7.7 6.0 5.7 87 1.0 SSE 4 6 2 3 - - 0.0
19/07:30pm 7.6 5.6 6.1 90 0.7 SE 6 7 3 4 - - 0.0
19/07:00pm 9.1 7.1 6.4 83 1.3 S 6 7 3 4 - - 0.0
19/06:30pm 9.7 8.1 6.5 80 1.6 NNW 4 6 2 3 - - 0.0
19/06:00pm 10.4 7.1 6.4 76 2.0 NW 13 15 7 8 - - 0.0
19/05:30pm 10.9 7.6 6.4 74 2.2 NW 13 15 7 8 - - 0.0
19/05:00pm 11.7 7.3 6.6 71 2.6 N 19 20 10 11 - - 0.0
19/04:30pm 12.6 7.6 6.5 66 3.1 N 22 26 12 14 - - 0.0
19/04:00pm 13.0 8.1 6.8 66 3.2 NNE 22 24 12 13 - - 0.0
19/03:30pm 13.3 8.4 6.8 64 3.3 NNE 22 26 12 14 - - 0.0
19/03:00pm 14.5 9.2 7.0 60 3.9 N 24 24 13 13 - - 0.0
19/02:30pm 14.6 10.2 7.6 63 3.7 NNE 20 22 11 12 - - 0.0
19/02:00pm 14.1 9.8 7.0 62 3.7 NE 19 24 10 13 - - 0.0
19/01:30pm 15.1 10.9 7.3 59 4.1 NNE 19 20 10 11 - - 0.0
19/01:00pm 15.1 10.1 6.5 56 4.4 NNE 22 24 12 13 - - 0.0
19/12:30pm 14.5 9.3 7.2 61 3.8 NNE 24 26 13 14 - - 0.0
19/12:00pm 15.0 10.6 6.6 57 4.3 NNE 19 20 10 11 - - 0.0
19/11:30am 15.0 13.1 6.6 57 4.3 NNW 6 9 3 5 - - 0.0
19/11:00am 13.5 11.6 6.5 62 3.6 ENE 6 7 3 4 - - 0.0

Other formats

Comma delimited format used in spreadsheet applications
http://www.bom.gov.au/fwo/IDN60801/IDN60801.99765.axf

JavaScript Object Notation format (JSON) in row-major order
http://www.bom.gov.au/fwo/IDN60801/IDN60801.99765.json

Data quality

Most of these data are generated automatically and are frequently updated. Quality checks on data are not normally performed. It is possible for incorrect values to appear. Refer to information at About Latest Weather Observations and please check the disclaimer before using these data.